createdAt,value
2023-05-07T00:02:06.315Z,0
2023-05-07T00:08:26.372Z,0
2023-05-07T00:14:49.511Z,0
2023-05-07T00:21:09.431Z,0
2023-05-07T00:27:32.356Z,0
2023-05-07T00:33:52.532Z,0
2023-05-07T00:40:15.445Z,0
2023-05-07T00:46:35.563Z,0
2023-05-07T00:52:58.603Z,0
2023-05-07T00:59:18.399Z,0
2023-05-07T01:05:41.438Z,0
2023-05-07T01:12:01.564Z,0
2023-05-07T01:18:24.328Z,0
2023-05-07T01:24:44.317Z,0
2023-05-07T01:31:07.468Z,0
2023-05-07T01:37:27.328Z,0
2023-05-07T01:43:50.349Z,0
2023-05-07T01:50:10.624Z,0
2023-05-07T01:56:33.456Z,0
2023-05-07T02:02:53.438Z,0
2023-05-07T02:09:16.489Z,0
2023-05-07T02:15:36.348Z,0
2023-05-07T02:21:59.367Z,0
2023-05-07T02:28:19.529Z,0
2023-05-07T02:34:42.582Z,0
2023-05-07T02:41:02.321Z,0
2023-05-07T02:47:25.474Z,0
2023-05-07T02:53:45.322Z,0
2023-05-07T03:00:08.486Z,0
2023-05-07T03:06:28.575Z,0
2023-05-07T03:12:51.686Z,0
2023-05-07T03:28:58.349Z,1
2023-05-07T03:35:18.317Z,3
2023-05-07T03:41:41.420Z,7
2023-05-07T03:48:01.463Z,16
2023-05-07T03:54:24.483Z,33
2023-05-07T04:00:44.330Z,60
2023-05-07T04:07:07.551Z,97
2023-05-07T04:13:27.462Z,155
2023-05-07T04:19:50.413Z,215
2023-05-07T04:26:10.515Z,280
2023-05-07T04:32:33.375Z,387
2023-05-07T04:38:53.342Z,344
2023-05-07T04:45:16.518Z,343
2023-05-07T04:51:36.326Z,411
2023-05-07T04:57:59.359Z,507
2023-05-07T05:04:19.678Z,674
2023-05-07T05:10:42.430Z,886
2023-05-07T05:17:02.493Z,980
2023-05-07T05:23:25.639Z,1177
2023-05-07T05:29:45.345Z,1267
2023-05-07T05:36:08.497Z,1391
2023-05-07T05:42:28.449Z,1576
2023-05-07T05:48:51.460Z,1487
2023-05-07T05:55:11.469Z,1572
2023-05-07T06:01:34.351Z,1558
2023-05-07T06:07:54.424Z,1639
2023-05-07T06:14:17.320Z,1703
2023-05-07T06:20:37.802Z,1909
2023-05-07T06:27:00.392Z,2220
2023-05-07T06:33:20.444Z,2359
2023-05-07T06:39:43.730Z,2535
2023-05-07T06:46:03.421Z,2385
2023-05-07T06:52:26.352Z,2497
2023-05-07T06:58:46.504Z,2489
2023-05-07T07:05:09.377Z,2570
2023-05-07T07:11:29.355Z,2468
2023-05-07T07:17:52.564Z,2497
2023-05-07T07:24:12.430Z,2640
2023-05-07T07:30:35.371Z,2835
2023-05-07T07:36:55.469Z,2621
2023-05-07T07:43:18.423Z,2564
2023-05-07T07:49:38.383Z,2457
2023-05-07T07:56:02.352Z,2641
2023-05-07T08:02:21.401Z,3200
2023-05-07T08:08:44.472Z,3408
2023-05-07T08:15:04.542Z,3385
2023-05-07T08:21:27.416Z,3338
2023-05-07T08:27:47.453Z,3626
2023-05-07T08:43:40.303Z,4272
2023-05-07T08:50:00.330Z,4343
2023-05-07T08:56:23.360Z,4159
2023-05-07T09:02:43.451Z,3936
2023-05-07T09:09:06.400Z,4004
2023-05-07T09:15:26.420Z,3512
2023-05-07T09:21:49.414Z,3545
2023-05-07T09:28:09.350Z,4445
2023-05-07T09:34:32.445Z,4507
2023-05-07T09:40:52.587Z,4138
2023-05-07T09:47:15.421Z,4343
2023-05-07T09:53:35.344Z,4106
2023-05-07T09:59:58.428Z,4120
2023-05-07T10:06:18.424Z,4264
2023-05-07T10:12:41.569Z,4315
2023-05-07T10:19:01.448Z,4671
2023-05-07T10:25:24.371Z,4455
2023-05-07T10:31:44.419Z,4030
2023-05-07T10:38:07.476Z,3946
2023-05-07T10:44:27.358Z,4607
2023-05-07T10:50:50.380Z,5346
2023-05-07T10:57:10.422Z,6527
2023-05-07T11:03:33.376Z,4519
2023-05-07T11:09:53.409Z,4079
2023-05-07T11:16:16.577Z,5154
2023-05-07T11:22:36.347Z,4738
2023-05-07T11:28:59.377Z,4186
2023-05-07T11:35:19.398Z,3751
2023-05-07T11:41:42.390Z,4913
2023-05-07T11:48:02.393Z,6456
2023-05-07T11:54:25.371Z,5398
2023-05-07T12:00:45.383Z,4986
2023-05-07T12:07:11.380Z,4085
2023-05-07T12:13:31.456Z,3831
2023-05-07T22:20:25.371Z,0
2023-05-07T22:26:45.414Z,0
2023-05-07T22:33:08.512Z,0
2023-05-07T22:39:28.371Z,0
2023-05-07T22:45:51.409Z,0
2023-05-07T22:52:11.384Z,0
2023-05-07T22:58:34.360Z,0
2023-05-07T23:04:54.309Z,0
2023-05-07T23:11:17.351Z,0
2023-05-07T23:17:37.429Z,0
2023-05-07T23:24:00.320Z,0
2023-05-07T23:30:20.344Z,0
2023-05-07T23:36:43.398Z,0
2023-05-07T23:43:03.347Z,0
2023-05-07T23:49:26.339Z,0
2023-05-07T23:55:46.383Z,0
